Time;durP1;ratioP1;P1;durP2;ratioP2;P2;SDS_P1;SDS_P2;PMS_P1;PMS_P2;Temp;Humidity;BMP_temperature;BMP_pressure;BME280_temperature;BME280_humidity;BME280_pressure;Samples;Min_cycle;Max_cycle;Signal;HPM_P1;HPM_P2
2021/09/17 00:00:44;;;;;;;13.90;4.20;;;;;;;16.23;82.48;100015.67;111554;1205;22453;-61
2021/09/17 00:03:16;;;;;;;11.50;4.20;;;;;;;16.20;82.42;100016.31;111638;1204;22471;-59
2021/09/17 00:05:47;;;;;;;11.90;3.90;;;;;;;16.16;82.57;100016.23;111809;1205;25227;-60
2021/09/17 00:08:22;;;;;;;11.50;4.10;;;;;;;16.12;82.65;100012.33;111880;1203;22984;-61
2021/09/17 00:10:53;;;;;;;10.50;4.10;;;;;;;16.08;82.76;100017.77;111896;1204;24082;-60
2021/09/17 00:13:26;;;;;;;13.10;4.20;;;;;;;16.05;83.02;100012.73;111899;1206;22404;-62
2021/09/17 00:15:57;;;;;;;9.90;3.70;;;;;;;16.02;83.13;100010.86;111989;1204;22456;-59
2021/09/17 00:18:27;;;;;;;10.40;4.40;;;;;;;16.01;83.28;100014.96;111829;1204;22551;-61
2021/09/17 00:21:01;;;;;;;12.30;4.40;;;;;;;16.01;83.40;100009.48;111736;1199;22470;-59
2021/09/17 00:23:32;;;;;;;12.80;4.50;;;;;;;16.00;83.43;100009.64;111793;1204;24191;-61
2021/09/17 00:26:06;;;;;;;12.40;5.10;;;;;;;16.01;83.65;100009.33;111762;1204;24100;-59
2021/09/17 00:28:38;;;;;;;14.20;6.30;;;;;;;16.02;83.56;100003.08;111699;1205;22908;-59
2021/09/17 00:31:29;;;;;;;15.30;6.50;;;;;;;16.03;83.68;100001.73;111703;1205;22476;-61
2021/09/17 00:34:11;;;;;;;;;;;;;;;;;;;;;
2021/09/17 00:36:44;;;;;;;16.10;6.70;;;;;;;15.94;83.53;99994.23;111762;1204;23096;-58
2021/09/17 00:39:15;;;;;;;13.20;5.70;;;;;;;15.90;83.63;99993.98;111734;1204;22444;-60
2021/09/17 00:41:47;;;;;;;16.80;5.90;;;;;;;15.86;83.51;99994.68;111835;1204;22446;-62
2021/09/17 00:44:25;;;;;;;8.70;3.10;;;;;;;15.82;83.44;99994.20;111719;1204;25095;-58
2021/09/17 00:46:57;;;;;;;10.50;3.40;;;;;;;15.77;82.98;99991.02;111875;1205;22454;-58
2021/09/17 00:49:28;;;;;;;8.80;2.50;;;;;;;15.73;82.92;99988.11;112131;1204;22920;-59
2021/09/17 00:51:59;;;;;;;10.50;2.50;;;;;;;15.68;82.81;99988.35;111777;1204;22453;-60
2021/09/17 00:54:34;;;;;;;6.40;2.40;;;;;;;15.64;82.84;99987.14;111782;1205;22565;-60
2021/09/17 00:57:07;;;;;;;7.20;2.10;;;;;;;15.60;82.84;99986.85;111866;1204;22475;-62
2021/09/17 00:59:38;;;;;;;7.70;1.80;;;;;;;15.57;82.71;99984.27;111907;1204;22931;-61
2021/09/17 01:02:09;;;;;;;7.10;1.90;;;;;;;15.54;82.59;99983.41;111673;1204;25522;-60
2021/09/17 01:04:40;;;;;;;8.50;2.40;;;;;;;15.53;82.73;99980.75;111745;1205;24212;-60
2021/09/17 01:07:13;;;;;;;9.10;2.10;;;;;;;15.50;82.79;99979.19;111723;1204;24178;-61
2021/09/17 01:09:45;;;;;;;8.60;2.10;;;;;;;15.48;82.88;99977.77;111651;1204;22451;-60
2021/09/17 01:12:18;;;;;;;6.30;1.90;;;;;;;15.46;82.83;99976.70;111665;1204;24173;-59
2021/09/17 01:14:49;;;;;;;7.90;2.10;;;;;;;15.45;82.87;99976.24;111749;1204;22509;-57
2021/09/17 01:17:20;;;;;;;5.70;2.20;;;;;;;15.44;83.06;99973.52;111698;1204;22447;-58
2021/09/17 01:19:51;;;;;;;6.50;2.00;;;;;;;15.44;83.08;99970.10;111631;1204;22445;-61
2021/09/17 01:22:22;;;;;;;8.10;2.20;;;;;;;15.43;83.22;99965.25;111774;1204;24210;-61
2021/09/17 01:24:53;;;;;;;11.90;2.60;;;;;;;15.42;83.34;99964.42;111749;1204;24100;-59
2021/09/17 01:27:26;;;;;;;7.00;2.10;;;;;;;15.41;83.29;99966.88;111650;1204;22445;-59
2021/09/17 01:29:57;;;;;;;11.50;2.20;;;;;;;15.40;83.28;99963.91;111724;1204;25038;-59
2021/09/17 01:32:28;;;;;;;7.50;2.00;;;;;;;15.37;83.12;99963.36;111638;1204;22581;-60
2021/09/17 01:35:00;;;;;;;7.30;1.90;;;;;;;15.33;82.95;99960.41;111748;1204;24232;-60
2021/09/17 01:37:32;;;;;;;6.90;2.20;;;;;;;15.30;82.97;99960.90;111700;1204;25036;-60
2021/09/17 01:40:04;;;;;;;6.00;1.80;;;;;;;15.28;82.99;99963.86;111850;1204;25173;-58
2021/09/17 01:42:35;;;;;;;9.50;1.90;;;;;;;15.26;83.12;99959.16;111677;1204;22453;-57
2021/09/17 01:45:09;;;;;;;8.50;1.60;;;;;;;15.24;82.99;99957.54;111781;1204;25365;-61
2021/09/17 01:47:41;;;;;;;6.10;1.60;;;;;;;15.21;82.90;99956.27;111676;1204;22440;-61
2021/09/17 01:50:13;;;;;;;6.30;2.00;;;;;;;15.20;83.02;99960.88;111633;1204;22564;-59
2021/09/17 01:52:44;;;;;;;5.70;2.10;;;;;;;15.18;82.94;99952.96;111664;1204;25176;-61
2021/09/17 01:55:17;;;;;;;7.10;2.30;;;;;;;15.16;82.93;99947.25;111802;1204;24202;-61
2021/09/17 01:57:49;;;;;;;6.90;2.30;;;;;;;15.13;83.11;99948.33;112022;1204;22983;-59
2021/09/17 02:00:21;;;;;;;11.60;2.50;;;;;;;15.11;83.04;99948.91;111700;1200;24055;-60
2021/09/17 02:02:52;;;;;;;7.40;2.70;;;;;;;15.10;83.23;99946.25;111709;1204;22415;-60
2021/09/17 02:05:23;;;;;;;7.90;3.00;;;;;;;15.09;83.17;99950.50;111585;1204;25155;-61
2021/09/17 02:07:54;;;;;;;9.60;2.40;;;;;;;15.07;83.23;99947.04;111750;1204;25217;-61
2021/09/17 02:10:27;;;;;;;6.40;2.50;;;;;;;15.05;83.22;99945.70;111659;1204;25103;-60
2021/09/17 02:12:58;;;;;;;7.20;2.70;;;;;;;15.04;83.17;99944.80;111805;1204;25173;-58
2021/09/17 02:15:29;;;;;;;9.80;2.80;;;;;;;15.02;83.38;99942.91;111665;1204;22453;-61
2021/09/17 02:18:00;;;;;;;7.60;2.50;;;;;;;15.00;83.37;99937.80;111626;1204;22592;-61
2021/09/17 02:20:31;;;;;;;8.50;2.30;;;;;;;14.99;83.45;99935.40;111553;1204;24097;-60
2021/09/17 02:23:02;;;;;;;10.00;2.90;;;;;;;14.96;83.47;99934.45;111708;1204;22454;-59
2021/09/17 02:25:36;;;;;;;9.90;2.70;;;;;;;14.92;83.47;99932.01;111715;1204;24829;-59
2021/09/17 02:28:07;;;;;;;8.10;3.10;;;;;;;14.91;83.52;99931.51;111695;1204;25143;-59
2021/09/17 02:30:38;;;;;;;9.70;2.90;;;;;;;14.88;83.31;99928.91;111699;1204;22439;-59
2021/09/17 02:33:10;;;;;;;10.60;3.20;;;;;;;14.84;83.34;99926.42;111852;1204;24079;-58
2021/09/17 02:35:41;;;;;;;12.50;3.80;;;;;;;14.79;83.23;99921.58;111729;1204;24264;-61
2021/09/17 02:38:12;;;;;;;9.70;3.20;;;;;;;14.75;83.26;99924.91;111617;1204;22742;-60
2021/09/17 02:40:42;;;;;;;16.10;4.00;;;;;;;14.69;83.26;99922.25;111693;1204;22378;-58
2021/09/17 02:43:13;;;;;;;11.50;4.20;;;;;;;14.65;83.29;99916.87;111710;1204;22456;-60
2021/09/17 02:45:45;;;;;;;12.30;4.60;;;;;;;14.60;83.19;99914.68;111761;1204;24606;-61
2021/09/17 02:48:16;;;;;;;11.10;3.70;;;;;;;14.57;83.30;99917.45;111643;1204;24187;-59
2021/09/17 02:50:47;;;;;;;11.60;4.10;;;;;;;14.55;83.30;99911.69;111587;1204;22462;-59
2021/09/17 02:53:18;;;;;;;10.80;4.20;;;;;;;14.54;83.32;99913.23;111903;1204;23331;-61
2021/09/17 02:55:49;;;;;;;10.30;4.10;;;;;;;14.53;83.26;99915.20;111796;1204;25417;-61
2021/09/17 02:58:22;;;;;;;10.80;4.10;;;;;;;14.50;83.19;99913.33;111807;1204;22445;-59
2021/09/17 03:00:53;;;;;;;10.50;3.90;;;;;;;14.47;83.11;99916.45;111725;1204;22598;-61
2021/09/17 03:03:23;;;;;;;11.50;4.00;;;;;;;14.43;82.86;99914.52;111776;1204;22441;-60
2021/09/17 03:05:55;;;;;;;14.30;3.40;;;;;;;14.39;83.04;99912.38;111680;1204;24106;-59
2021/09/17 03:08:25;;;;;;;11.80;4.00;;;;;;;14.36;83.18;99911.05;111746;1204;25055;-58
2021/09/17 03:10:58;;;;;;;11.60;4.70;;;;;;;14.31;83.41;99904.27;111739;1204;23662;-59
2021/09/17 03:13:30;;;;;;;11.70;5.30;;;;;;;14.30;83.46;99906.92;112032;1203;23124;-59
2021/09/17 03:16:05;;;;;;;11.00;4.30;;;;;;;14.29;83.48;99906.73;111967;1204;25448;-59
2021/09/17 03:18:37;;;;;;;15.10;5.50;;;;;;;14.28;83.54;99904.00;111711;1204;26328;-61
2021/09/17 03:21:10;;;;;;;16.00;5.70;;;;;;;14.24;83.50;99902.21;111911;1205;25362;-58
2021/09/17 03:23:41;;;;;;;12.30;5.10;;;;;;;14.21;83.59;99903.23;111759;1204;24118;-59
2021/09/17 03:26:13;;;;;;;12.30;5.20;;;;;;;14.18;83.65;99900.33;111805;1204;24054;-61
2021/09/17 03:28:44;;;;;;;16.50;6.80;;;;;;;14.15;83.63;99901.45;111736;1204;22469;-59
2021/09/17 03:31:15;;;;;;;15.60;5.70;;;;;;;14.14;83.67;99901.14;111720;1204;24064;-61
2021/09/17 03:33:48;;;;;;;14.80;6.70;;;;;;;14.14;83.67;99901.91;111719;1204;25187;-59
2021/09/17 03:36:20;;;;;;;17.10;6.00;;;;;;;14.12;83.80;99902.02;111893;1204;24463;-59
2021/09/17 03:38:51;;;;;;;17.80;6.60;;;;;;;14.11;83.67;99897.67;111800;1204;25011;-59
2021/09/17 03:41:22;;;;;;;14.40;5.70;;;;;;;14.11;83.68;99896.98;111797;1204;25213;-60
2021/09/17 03:43:57;;;;;;;17.10;6.80;;;;;;;14.09;83.77;99891.30;111910;1204;22453;-61
2021/09/17 03:46:28;;;;;;;24.40;8.10;;;;;;;14.08;83.85;99893.19;112060;1204;24259;-60
2021/09/17 03:48:59;;;;;;;16.30;6.50;;;;;;;14.04;83.83;99889.52;111838;1204;22547;-58
2021/09/17 03:51:30;;;;;;;19.30;8.70;;;;;;;14.01;83.81;99885.44;111817;1204;25499;-60
2021/09/17 03:54:01;;;;;;;20.70;8.20;;;;;;;13.98;83.87;99882.69;111779;1203;22638;-59
2021/09/17 03:56:32;;;;;;;14.90;6.50;;;;;;;13.96;83.95;99884.63;111906;1204;23122;-59
2021/09/17 03:59:03;;;;;;;19.50;6.80;;;;;;;13.93;83.96;99885.13;111761;1204;23792;-61
2021/09/17 04:01:34;;;;;;;18.30;7.60;;;;;;;13.91;84.02;99884.06;111846;1204;22475;-60
2021/09/17 04:04:06;;;;;;;17.20;7.20;;;;;;;13.89;84.06;99882.14;111886;1204;22453;-59
2021/09/17 04:06:37;;;;;;;17.20;7.30;;;;;;;13.88;84.02;99884.69;111884;1204;22448;-61
2021/09/17 04:09:08;;;;;;;21.60;8.90;;;;;;;13.87;84.10;99881.77;111803;1204;22440;-59
2021/09/17 04:11:39;;;;;;;18.60;7.20;;;;;;;13.85;84.19;99882.23;111942;1204;24025;-61
2021/09/17 04:14:10;;;;;;;15.10;7.10;;;;;;;13.83;84.25;99882.48;111958;1204;22491;-60
2021/09/17 04:16:41;;;;;;;18.30;8.10;;;;;;;13.81;84.21;99883.41;111882;1204;24107;-59
2021/09/17 04:19:12;;;;;;;18.60;7.20;;;;;;;13.80;84.28;99885.80;111791;1203;22444;-59
2021/09/17 04:21:43;;;;;;;18.30;7.10;;;;;;;13.81;84.43;99884.23;111990;1204;22466;-61
2021/09/17 04:24:15;;;;;;;18.70;6.80;;;;;;;13.81;84.44;99889.98;111858;1204;22456;-62
2021/09/17 04:26:46;;;;;;;19.80;7.60;;;;;;;13.82;84.54;99890.70;111945;1204;22454;-60
2021/09/17 04:29:17;;;;;;;16.20;7.60;;;;;;;13.80;84.50;99884.98;111831;1204;24076;-60
2021/09/17 04:31:47;;;;;;;19.10;7.40;;;;;;;13.79;84.65;99885.86;111874;1204;22446;-59
2021/09/17 04:34:18;;;;;;;15.60;6.90;;;;;;;13.80;84.69;99890.44;111988;1204;24170;-60
2021/09/17 04:36:49;;;;;;;18.10;7.10;;;;;;;13.80;84.58;99888.41;111859;1204;22463;-61
2021/09/17 04:39:20;;;;;;;17.50;6.80;;;;;;;13.80;84.69;99891.86;111679;1204;22458;-60
2021/09/17 04:41:51;;;;;;;14.80;6.30;;;;;;;13.79;84.87;99891.21;111849;1204;25050;-60
2021/09/17 04:44:23;;;;;;;16.30;6.90;;;;;;;13.80;84.83;99890.45;111802;1204;25482;-60
2021/09/17 04:46:54;;;;;;;17.20;6.40;;;;;;;13.80;84.88;99884.77;111976;1204;23119;-59
2021/09/17 04:49:26;;;;;;;15.70;6.10;;;;;;;13.79;85.05;99883.61;111816;1204;22858;-59
2021/09/17 04:51:57;;;;;;;17.60;7.00;;;;;;;13.80;84.91;99881.88;111631;1204;24112;-62
2021/09/17 04:54:29;;;;;;;18.30;6.80;;;;;;;13.80;85.06;99884.38;111799;1204;22469;-60
2021/09/17 04:57:01;;;;;;;17.70;6.70;;;;;;;13.80;85.09;99885.55;111762;1204;22462;-61
2021/09/17 04:59:32;;;;;;;21.00;8.90;;;;;;;13.82;85.19;99885.80;111909;1204;23653;-60
2021/09/17 05:02:03;;;;;;;20.60;7.90;;;;;;;13.82;85.08;99890.86;111976;1204;23857;-59
2021/09/17 05:04:35;;;;;;;16.80;6.20;;;;;;;13.83;85.23;99891.67;111901;1204;24101;-60
2021/09/17 05:07:07;;;;;;;20.70;7.80;;;;;;;13.84;85.23;99887.89;111899;1204;22445;-61
2021/09/17 05:09:38;;;;;;;18.50;7.40;;;;;;;13.85;85.37;99889.63;112000;1204;22467;-59
2021/09/17 05:12:10;;;;;;;18.70;6.70;;;;;;;13.87;85.42;99889.48;111599;1204;24063;-58
2021/09/17 05:14:42;;;;;;;17.00;7.10;;;;;;;13.89;85.38;99887.18;111613;1204;24116;-58
2021/09/17 05:17:13;;;;;;;14.20;6.90;;;;;;;13.91;85.37;99884.77;111880;1204;22483;-60
2021/09/17 05:19:44;;;;;;;15.60;6.80;;;;;;;13.93;85.36;99889.68;111693;1204;22592;-57
2021/09/17 05:22:15;;;;;;;17.00;6.90;;;;;;;13.95;85.38;99892.68;111416;1205;22435;-57
2021/09/17 05:24:46;;;;;;;17.50;6.80;;;;;;;13.97;85.43;99898.20;111317;1206;23767;-58
2021/09/17 05:27:17;;;;;;;16.10;5.80;;;;;;;14.01;85.53;99905.70;111485;1205;24881;-58
2021/09/17 05:29:59;;;;;;;;;;;;;;;;;;;;;
2021/09/17 05:32:30;;;;;;;18.60;5.50;;;;;;;14.08;85.89;99915.59;111201;1206;22456;-55
2021/09/17 05:35:03;;;;;;;16.20;5.80;;;;;;;14.12;85.66;99912.63;111485;1205;22442;-56
2021/09/17 05:37:58;;;;;;;11.40;4.80;;;;;;;14.14;85.78;99911.30;111863;1204;22507;-64
2021/09/17 05:40:29;;;;;;;15.30;4.50;;;;;;;14.18;85.89;99906.20;112117;1204;22453;-57
2021/09/17 05:43:00;;;;;;;10.80;4.20;;;;;;;14.22;86.08;99905.39;111733;1205;25936;-57
2021/09/17 05:45:30;;;;;;;13.00;3.70;;;;;;;14.26;86.03;99904.23;111803;1204;22425;-59
2021/09/17 05:48:01;;;;;;;13.80;4.70;;;;;;;14.30;85.95;99904.36;111766;1206;22459;-58
2021/09/17 05:50:33;;;;;;;15.00;5.00;;;;;;;14.34;85.98;99905.29;111653;1204;22455;-58
2021/09/17 05:53:04;;;;;;;14.00;5.10;;;;;;;14.38;86.01;99903.90;111950;1204;26432;-59
2021/09/17 05:55:35;;;;;;;14.70;5.00;;;;;;;14.41;86.00;99896.34;111745;1206;24114;-58
2021/09/17 05:58:07;;;;;;;13.70;5.70;;;;;;;14.45;86.03;99892.86;111652;1206;22516;-59
2021/09/17 06:00:39;;;;;;;14.60;5.50;;;;;;;14.48;85.89;99896.43;111499;1207;24116;-58
2021/09/17 06:03:11;;;;;;;12.10;4.70;;;;;;;14.50;85.89;99895.86;112868;1206;22455;-56
2021/09/17 06:05:42;;;;;;;12.40;4.60;;;;;;;14.52;85.93;99900.51;111919;1204;24209;-57
2021/09/17 06:08:13;;;;;;;12.60;5.00;;;;;;;14.55;85.78;99905.75;111676;1205;25088;-58
2021/09/17 06:10:45;;;;;;;11.10;4.30;;;;;;;14.57;85.88;99903.66;111731;1206;22438;-59
2021/09/17 06:13:16;;;;;;;13.40;5.40;;;;;;;14.60;85.92;99903.29;111840;1205;24105;-58
2021/09/17 06:15:47;;;;;;;13.50;5.20;;;;;;;14.64;86.00;99902.15;111520;1206;22436;-59
2021/09/17 06:18:20;;;;;;;16.20;6.10;;;;;;;14.66;85.73;99898.67;111340;1206;22993;-58
2021/09/17 06:20:51;;;;;;;16.80;6.40;;;;;;;14.68;85.67;99897.39;112088;1204;24107;-59
2021/09/17 06:23:22;;;;;;;20.00;5.90;;;;;;;14.70;85.71;99894.98;111363;1206;24881;-58
2021/09/17 06:25:56;;;;;;;13.80;6.10;;;;;;;14.73;85.77;99895.13;111496;1204;22703;-58
2021/09/17 06:28:28;;;;;;;12.60;5.10;;;;;;;14.75;85.82;99894.88;111741;1206;24942;-58
2021/09/17 06:30:59;;;;;;;14.00;5.00;;;;;;;14.78;85.67;99898.73;111532;1204;22453;-55
2021/09/17 06:33:30;;;;;;;16.80;4.70;;;;;;;14.78;85.48;99898.94;111397;1204;22526;-57
2021/09/17 06:36:01;;;;;;;13.90;5.60;;;;;;;14.80;85.56;99898.13;111427;1206;22445;-57
2021/09/17 06:38:32;;;;;;;16.50;5.50;;;;;;;14.80;85.43;99898.89;111506;1204;25070;-56
2021/09/17 06:41:02;;;;;;;14.60;5.70;;;;;;;14.82;85.46;99897.24;111382;1206;22455;-58
2021/09/17 06:43:34;;;;;;;15.10;5.80;;;;;;;14.83;85.44;99891.96;111342;1206;25061;-58
2021/09/17 06:46:05;;;;;;;13.80;5.00;;;;;;;14.85;85.44;99891.61;111509;1207;22452;-57
2021/09/17 06:48:36;;;;;;;18.10;4.90;;;;;;;14.86;85.39;99893.86;111497;1204;22467;-58
2021/09/17 06:51:07;;;;;;;15.80;6.10;;;;;;;14.88;85.37;99897.48;111340;1206;22458;-59
2021/09/17 06:53:38;;;;;;;12.10;5.80;;;;;;;14.90;85.49;99900.84;111547;1204;24968;-59
2021/09/17 06:56:12;;;;;;;16.20;6.50;;;;;;;14.92;85.38;99901.50;111682;1206;22460;-59
2021/09/17 06:58:43;;;;;;;14.30;5.90;;;;;;;14.94;85.43;99900.84;111716;1204;25215;-59
2021/09/17 07:01:14;;;;;;;14.60;6.80;;;;;;;14.96;85.51;99901.69;111768;1204;25159;-58
2021/09/17 07:03:45;;;;;;;18.20;6.50;;;;;;;14.99;85.48;99902.34;111511;1205;22468;-57
2021/09/17 07:06:15;;;;;;;16.70;5.70;;;;;;;15.00;85.35;99904.63;111650;1204;23256;-58
2021/09/17 07:08:46;;;;;;;15.70;5.70;;;;;;;15.02;85.34;99904.00;111629;1204;22596;-60
2021/09/17 07:11:17;;;;;;;13.70;5.30;;;;;;;15.04;85.27;99904.52;111675;1204;25103;-57
2021/09/17 07:13:48;;;;;;;14.50;6.40;;;;;;;15.05;85.00;99899.76;111478;1205;24495;-56
2021/09/17 07:16:19;;;;;;;14.20;6.00;;;;;;;15.07;85.08;99896.57;111596;1204;22459;-60
2021/09/17 07:18:50;;;;;;;15.50;5.50;;;;;;;15.08;84.99;99892.89;111569;1207;22442;-58
2021/09/17 07:21:21;;;;;;;17.40;6.20;;;;;;;15.10;85.10;99892.37;111383;1204;22459;-58
2021/09/17 07:23:51;;;;;;;14.30;6.00;;;;;;;15.12;85.04;99890.73;111419;1204;22627;-57
2021/09/17 07:26:22;;;;;;;14.20;6.00;;;;;;;15.13;84.92;99890.98;111449;1207;24156;-55
2021/09/17 07:28:53;;;;;;;16.80;7.00;;;;;;;15.14;84.83;99893.98;111266;1207;22453;-59
2021/09/17 07:31:25;;;;;;;15.40;7.00;;;;;;;15.14;84.82;99897.31;111366;1206;23122;-58
2021/09/17 07:33:56;;;;;;;17.40;6.70;;;;;;;15.15;84.68;99892.75;111901;1203;22494;-58
2021/09/17 07:36:28;;;;;;;16.20;7.00;;;;;;;15.16;84.73;99893.84;111813;1206;25063;-58
2021/09/17 07:38:59;;;;;;;15.80;6.80;;;;;;;15.16;84.60;99895.61;111453;1206;22446;-58
2021/09/17 07:41:30;;;;;;;12.70;6.30;;;;;;;15.18;84.70;99894.43;111399;1202;26313;-57
2021/09/17 07:44:01;;;;;;;16.00;7.60;;;;;;;15.21;84.80;99899.27;111726;1204;22456;-60
2021/09/17 07:46:33;;;;;;;15.00;6.70;;;;;;;15.25;84.67;99899.71;111655;1206;25120;-57
2021/09/17 07:49:05;;;;;;;16.70;6.00;;;;;;;15.29;84.67;99903.83;111384;1206;22462;-59
2021/09/17 07:51:36;;;;;;;17.30;6.10;;;;;;;15.33;84.49;99907.08;111576;1209;24213;-58
2021/09/17 07:54:07;;;;;;;13.60;5.00;;;;;;;15.36;84.54;99908.17;111421;1206;25067;-59
2021/09/17 07:56:38;;;;;;;18.10;5.70;;;;;;;15.39;83.98;99905.98;111629;1206;22457;-58
2021/09/17 07:59:10;;;;;;;14.00;4.20;;;;;;;15.42;84.00;99907.80;111400;1206;22469;-55
2021/09/17 08:01:41;;;;;;;12.50;4.90;;;;;;;15.44;83.98;99909.80;111697;1205;24096;-58
2021/09/17 08:04:12;;;;;;;14.60;4.90;;;;;;;15.47;83.85;99911.80;111506;1206;24168;-58
2021/09/17 08:06:44;;;;;;;16.20;5.50;;;;;;;15.49;83.71;99906.45;112040;1206;22439;-58
2021/09/17 08:09:14;;;;;;;13.60;4.10;;;;;;;15.52;83.73;99906.23;111654;1203;22456;-60
2021/09/17 08:11:46;;;;;;;9.50;3.80;;;;;;;15.53;83.51;99905.45;111458;1205;25358;-58
2021/09/17 08:14:17;;;;;;;13.50;4.00;;;;;;;15.54;83.24;99903.86;111459;1209;22386;-59
2021/09/17 08:16:48;;;;;;;10.10;3.90;;;;;;;15.55;83.31;99908.09;111621;1209;24119;-58
2021/09/17 08:22:11;;;;;;;11.00;3.50;;;;;;;15.61;83.14;99909.08;111420;1205;22440;-58
2021/09/17 08:24:42;;;;;;;9.70;2.70;;;;;;;15.65;82.90;99905.43;111478;1205;22465;-55
2021/09/17 08:27:13;;;;;;;13.90;3.50;;;;;;;15.67;82.76;99908.94;111436;1206;22486;-59
2021/09/17 08:29:44;;;;;;;13.50;3.30;;;;;;;15.69;82.74;99908.11;111586;1205;24491;-54
2021/09/17 08:32:15;;;;;;;12.90;4.00;;;;;;;15.73;83.04;99905.31;111432;1206;22452;-57
2021/09/17 08:34:48;;;;;;;8.00;2.70;;;;;;;15.79;82.96;99905.42;111456;1205;24133;-58
2021/09/17 08:37:20;;;;;;;10.60;3.30;;;;;;;15.82;82.61;99910.36;111586;1205;22437;-59
2021/09/17 08:39:50;;;;;;;8.30;2.90;;;;;;;15.83;82.37;99907.80;111430;1204;22596;-58
2021/09/17 08:42:21;;;;;;;8.10;2.80;;;;;;;15.85;82.17;99909.68;111573;1206;26430;-60
2021/09/17 08:44:53;;;;;;;10.10;2.10;;;;;;;15.86;82.17;99904.77;111653;1207;25102;-59
2021/09/17 08:47:26;;;;;;;12.90;2.60;;;;;;;15.87;81.98;99900.20;111644;1204;25105;-59
2021/09/17 08:49:57;;;;;;;8.80;2.40;;;;;;;15.87;82.15;99903.73;111404;1207;22451;-59
2021/09/17 08:52:28;;;;;;;7.10;2.20;;;;;;;15.89;81.97;99905.06;111332;1205;24120;-59
2021/09/17 08:55:02;;;;;;;7.70;2.00;;;;;;;15.89;81.69;99910.05;112091;1208;22454;-59
2021/09/17 09:00:39;;;;;;;10.40;2.60;;;;;;;15.96;81.88;99912.15;111469;1206;22446;-58
2021/09/17 09:03:28;;;;;;;9.30;2.00;;;;;;;16.03;81.89;99909.58;111593;1209;22456;-60
2021/09/17 09:06:09;;;;;;;5.70;2.10;;;;;;;16.11;81.58;99908.84;111730;1206;22446;-59
2021/09/17 09:09:01;;;;;;;9.10;1.90;;;;;;;16.20;81.63;99903.70;111533;1204;24293;-61
2021/09/17 09:11:33;;;;;;;7.50;1.90;;;;;;;16.30;81.34;99903.55;111449;1205;24907;-60
2021/09/17 09:14:10;;;;;;;6.80;1.60;;;;;;;16.35;80.81;99908.12;111670;1205;24071;-60
2021/09/17 09:16:43;;;;;;;5.50;1.60;;;;;;;16.41;80.79;99906.58;111844;1205;25418;-59
2021/09/17 09:19:28;;;;;;;7.60;1.70;;;;;;;16.45;80.45;99902.23;111820;1204;25134;-60
2021/09/17 09:22:14;;;;;;;5.70;1.70;;;;;;;16.51;80.66;99899.21;111567;1206;23218;-59
2021/09/17 09:24:47;;;;;;;4.50;1.30;;;;;;;16.59;80.39;99899.95;111378;1206;22467;-58
2021/09/17 09:27:20;;;;;;;7.90;1.60;;;;;;;16.65;80.11;99902.09;111453;1206;25150;-60
2021/09/17 09:29:53;;;;;;;6.00;1.40;;;;;;;16.70;79.57;99899.21;111437;1205;24121;-60
2021/09/17 09:32:29;;;;;;;6.20;1.50;;;;;;;16.74;79.52;99895.34;111690;1209;22469;-59
2021/09/17 09:35:02;;;;;;;5.50;1.20;;;;;;;16.77;79.20;99893.77;111990;1205;22447;-59
2021/09/17 09:37:35;;;;;;;7.50;1.40;;;;;;;16.78;78.65;99897.17;111983;1205;26819;-58
2021/09/17 09:40:12;;;;;;;4.40;1.10;;;;;;;16.79;78.54;99892.05;112132;1205;22469;-59
2021/09/17 09:42:44;;;;;;;5.00;1.20;;;;;;;16.82;78.71;99887.91;111710;1206;22453;-61
2021/09/17 09:45:20;;;;;;;4.80;1.40;;;;;;;16.87;78.44;99892.86;111790;1205;25061;-59
2021/09/17 09:47:53;;;;;;;8.20;1.40;;;;;;;16.88;78.55;99891.16;111700;1205;25101;-65
2021/09/17 09:50:26;;;;;;;4.80;1.00;;;;;;;16.89;77.71;99891.09;111671;1205;25267;-59
2021/09/17 09:53:00;;;;;;;4.60;1.20;;;;;;;16.87;77.56;99890.36;112293;1205;22525;-59
2021/09/17 09:55:33;;;;;;;5.70;1.50;;;;;;;16.88;77.01;99888.30;111874;1205;22635;-60
2021/09/17 09:58:05;;;;;;;4.90;1.30;;;;;;;16.91;77.44;99888.63;111793;1205;23744;-58
2021/09/17 10:00:37;;;;;;;3.80;1.00;;;;;;;16.96;76.95;99888.55;111748;1206;22481;-59
2021/09/17 10:03:08;;;;;;;4.70;1.10;;;;;;;17.01;76.86;99885.84;112000;1206;22819;-58
2021/09/17 10:05:45;;;;;;;10.00;1.20;;;;;;;17.08;76.92;99885.70;112434;1205;24075;-60
2021/09/17 10:08:16;;;;;;;5.80;1.30;;;;;;;17.15;76.84;99886.88;112105;1205;22454;-59
2021/09/17 10:13:41;;;;;;;8.00;1.40;;;;;;;17.23;75.50;99886.96;112141;1205;25381;-58
2021/09/17 10:16:12;;;;;;;5.20;1.50;;;;;;;17.24;75.68;99885.92;111948;1206;22388;-58
2021/09/17 10:18:45;;;;;;;6.00;1.60;;;;;;;17.28;75.82;99884.23;111766;1205;22451;-59
2021/09/17 10:21:36;;;;;;;6.30;1.60;;;;;;;17.32;74.45;99886.75;112295;1204;23485;-60
2021/09/17 10:24:41;;;;;;;6.30;1.60;;;;;;;17.32;74.85;99879.63;111700;1204;22454;-59
2021/09/17 10:27:19;;;;;;;8.00;1.80;;;;;;;17.36;75.03;99875.15;111739;1209;22462;-59
2021/09/17 10:30:00;;;;;;;4.90;1.70;;;;;;;17.42;75.10;99878.20;111653;1205;22467;-58
2021/09/17 10:32:43;;;;;;;5.20;1.40;;;;;;;17.49;74.80;99873.95;112100;1205;22468;-60
2021/09/17 10:35:18;;;;;;;7.40;1.60;;;;;;;17.58;74.47;99873.52;111918;1205;25196;-59
2021/09/17 10:38:15;;;;;;;4.30;1.10;;;;;;;17.67;74.41;99875.80;111942;1205;22454;-57
2021/09/17 10:40:55;;;;;;;5.20;1.10;;;;;;;17.74;73.51;99865.40;111830;1205;22449;-59
2021/09/17 10:43:43;;;;;;;3.70;1.10;;;;;;;17.82;73.64;99870.01;112090;1205;25299;-60
2021/09/17 10:46:34;;;;;;;7.40;1.10;;;;;;;17.90;73.50;99871.16;111672;1205;22459;-59
2021/09/17 10:49:05;;;;;;;4.10;0.90;;;;;;;17.91;72.38;99868.21;111642;1205;24117;-60
2021/09/17 10:51:38;;;;;;;4.60;1.00;;;;;;;17.91;72.80;99863.77;111577;1205;24076;-61
2021/09/17 10:54:11;;;;;;;5.10;0.90;;;;;;;17.92;72.99;99862.76;111729;1206;25098;-58
2021/09/17 10:57:08;;;;;;;3.50;1.00;;;;;;;17.91;72.42;99863.50;112014;1206;25057;-58
2021/09/17 10:59:59;;;;;;;4.20;1.30;;;;;;;17.86;72.56;99864.80;111834;1204;24779;-59
2021/09/17 11:02:46;;;;;;;8.20;1.30;;;;;;;17.84;72.69;99863.61;111660;1209;25143;-60
2021/09/17 11:05:20;;;;;;;5.10;0.80;;;;;;;17.81;72.39;99866.88;111526;1209;22455;-59
2021/09/17 11:07:51;;;;;;;3.30;0.90;;;;;;;17.75;72.35;99868.79;111646;1205;22510;-58
2021/09/17 11:10:32;;;;;;;5.90;1.10;;;;;;;17.68;72.46;99872.99;111591;1205;23268;-59
2021/09/17 11:13:11;;;;;;;5.90;1.10;;;;;;;17.57;72.54;99872.90;111610;1205;22593;-59
2021/09/17 11:15:43;;;;;;;8.20;1.30;;;;;;;17.41;72.70;99869.33;111499;1205;25118;-59
2021/09/17 11:18:20;;;;;;;6.00;1.30;;;;;;;17.27;73.22;99866.65;111727;1207;22458;-59
2021/09/17 11:20:53;;;;;;;3.30;1.10;;;;;;;17.16;73.30;99864.41;111560;1209;25241;-59
2021/09/17 11:23:37;;;;;;;3.10;1.00;;;;;;;17.05;73.25;99863.13;111891;1207;25227;-58
2021/09/17 11:26:09;;;;;;;3.20;0.90;;;;;;;16.93;73.44;99865.33;111729;1205;23150;-58
2021/09/17 11:28:44;;;;;;;4.00;0.80;;;;;;;16.84;73.32;99867.90;111793;1205;24099;-59
2021/09/17 11:31:18;;;;;;;2.80;0.80;;;;;;;16.75;73.29;99861.02;111761;1205;25250;-59
2021/09/17 11:34:03;;;;;;;3.20;0.90;;;;;;;16.71;73.80;99862.40;112237;1206;24165;-59
2021/09/17 11:37:03;;;;;;;4.20;0.80;;;;;;;16.71;73.93;99862.80;111851;1207;22568;-61
2021/09/17 11:39:38;;;;;;;4.20;1.00;;;;;;;16.71;73.87;99862.31;112064;1205;22565;-59
2021/09/17 11:42:13;;;;;;;3.80;1.00;;;;;;;16.71;73.73;99860.00;111686;1205;23995;-60
2021/09/17 11:44:48;;;;;;;3.30;0.80;;;;;;;16.74;73.91;99859.75;111741;1209;22553;-61
2021/09/17 11:47:24;;;;;;;5.70;1.20;;;;;;;16.78;74.11;99859.05;111774;1205;22469;-59
2021/09/17 11:49:59;;;;;;;4.60;1.00;;;;;;;16.82;74.36;99859.98;111700;1205;25062;-59
2021/09/17 11:52:39;;;;;;;6.60;1.10;;;;;;;16.86;74.29;99855.10;111900;1206;25219;-60
2021/09/17 11:55:13;;;;;;;3.80;1.10;;;;;;;16.90;73.85;99862.27;111559;1205;24212;-60
2021/09/17 11:57:46;;;;;;;2.60;1.00;;;;;;;16.86;74.00;99864.52;111987;1207;22407;-60